Time;durP1;ratioP1;P1;durP2;ratioP2;P2;SDS_P1;SDS_P2;PMS_P1;PMS_P2;Temp;Humidity;BMP_temperature;BMP_pressure;BME280_temperature;BME280_humidity;BME280_pressure;Samples;Min_cycle;Max_cycle;Signal;HPM_P1;HPM_P2
2022/07/16 00:01:37;;;;;;;0.10;0.10;;;;;;;22.02;53.35;101752.22;5129617;28;20068;-39
2022/07/16 00:03:56;;;;;;;0.10;0.10;;;;;;;22.02;53.43;101750.28;5113553;28;20421;-40
2022/07/16 00:06:23;;;;;;;0.10;0.10;;;;;;;22.03;53.39;101753.91;5093602;28;20051;-37
2022/07/16 00:08:48;;;;;;;0.10;0.10;;;;;;;22.04;53.36;101747.22;5126962;28;20035;-39
2022/07/16 00:11:14;;;;;;;0.10;0.10;;;;;;;22.03;53.20;101745.56;5128511;28;20062;-38
2022/07/16 00:13:40;;;;;;;0.10;0.10;;;;;;;22.02;53.38;101750.28;5127180;28;20529;-39
2022/07/16 00:16:07;;;;;;;0.10;0.10;;;;;;;22.03;53.34;101751.13;5127193;28;20040;-37
2022/07/16 00:21:19;;;;;;;0.10;0.10;;;;;;;22.02;53.34;101741.97;5101631;28;20294;-36
2022/07/16 00:23:44;;;;;;;0.10;0.10;;;;;;;22.02;53.36;101746.66;5125977;27;20715;-37
2022/07/16 00:26:10;;;;;;;0.10;0.10;;;;;;;22.03;53.30;101751.97;5129657;28;20051;-38
2022/07/16 00:28:36;;;;;;;0.10;0.10;;;;;;;22.01;53.34;101748.63;5128960;28;20047;-38
2022/07/16 00:31:02;;;;;;;0.10;0.10;;;;;;;22.03;53.31;101751.97;5126408;27;20055;-37
2022/07/16 00:33:27;;;;;;;0.10;0.10;;;;;;;22.03;53.47;101743.63;5125393;28;20502;-37
2022/07/16 00:35:53;;;;;;;0.10;0.10;;;;;;;22.02;53.28;101747.53;5128441;28;20047;-37
2022/07/16 00:38:19;;;;;;;0.10;0.10;;;;;;;22.01;53.39;101742.25;5128796;28;20061;-38
2022/07/16 00:40:44;;;;;;;0.10;0.10;;;;;;;22.02;53.32;101733.66;5129622;28;20039;-37
2022/07/16 00:43:12;;;;;;;0.10;0.10;;;;;;;22.03;53.27;101737.25;5129514;28;20045;-37
2022/07/16 00:45:38;;;;;;;0.10;0.10;;;;;;;22.02;53.25;101727.25;5127758;28;20081;-38
2022/07/16 00:48:04;;;;;;;0.20;0.20;;;;;;;22.01;53.44;101726.41;5126050;28;20081;-39
2022/07/16 00:50:31;;;;;;;0.10;0.10;;;;;;;22.02;53.41;101730.88;5127686;28;20046;-37
2022/07/16 00:52:58;;;;;;;0.20;0.20;;;;;;;22.03;53.32;101737.25;5110796;28;20083;-38
2022/07/16 00:55:24;;;;;;;0.10;0.10;;;;;;;22.03;53.41;101740.03;5130489;28;20466;-38
2022/07/16 00:57:49;;;;;;;0.10;0.10;;;;;;;22.03;53.26;101746.41;5128867;28;20066;-38
2022/07/16 01:00:15;;;;;;;0.10;0.10;;;;;;;22.03;53.19;101751.97;5127979;28;20055;-38
2022/07/16 01:02:41;;;;;;;0.10;0.10;;;;;;;22.02;53.17;101746.66;5110293;28;20130;-38
2022/07/16 01:05:07;;;;;;;0.10;0.10;;;;;;;22.02;53.40;101755.84;5128407;28;20039;-38
2022/07/16 01:07:33;;;;;;;0.10;0.10;;;;;;;22.02;53.45;101749.44;5129642;28;20039;-38
2022/07/16 01:10:02;;;;;;;0.20;0.20;;;;;;;22.02;53.43;101741.13;5128583;28;20074;-38
2022/07/16 01:12:27;;;;;;;0.10;0.10;;;;;;;22.02;53.33;101749.44;5127154;28;20201;-38
2022/07/16 01:14:54;;;;;;;0.10;0.10;;;;;;;22.01;53.41;101739.47;5128527;28;20047;-38
2022/07/16 01:17:19;;;;;;;0.10;0.10;;;;;;;22.02;53.36;101746.66;5127391;28;20074;-38
2022/07/16 01:19:45;;;;;;;0.10;0.10;;;;;;;22.02;53.33;101741.97;5129607;28;20381;-38
2022/07/16 01:22:18;;;;;;;0.10;0.10;;;;;;;22.01;53.30;101740.28;5128451;28;20039;-38
2022/07/16 01:24:43;;;;;;;0.10;0.10;;;;;;;22.02;53.30;101744.75;5110287;28;20043;-38
2022/07/16 01:27:09;;;;;;;0.10;0.10;;;;;;;22.02;53.35;101744.75;5129460;28;20487;-38
2022/07/16 01:29:35;;;;;;;0.10;0.10;;;;;;;22.04;53.41;101744.47;5128472;27;20047;-37
2022/07/16 01:32:00;;;;;;;0.10;0.10;;;;;;;22.02;53.32;101738.34;5128822;28;20043;-37
2022/07/16 01:34:26;;;;;;;0.10;0.10;;;;;;;22.02;53.34;101741.13;5129430;27;20393;-38
2022/07/16 01:37:09;;;;;;;0.10;0.10;;;;;;;22.02;53.34;101736.44;5131017;28;20042;-37
2022/07/16 01:39:38;;;;;;;0.10;0.10;;;;;;;22.03;53.29;101731.72;5111423;28;20147;-37
2022/07/16 01:42:05;;;;;;;0.10;0.10;;;;;;;22.02;53.33;101735.56;5131065;27;20500;-39
2022/07/16 01:44:34;;;;;;;0.10;0.10;;;;;;;22.02;53.45;101733.66;5132429;28;20467;-38
2022/07/16 01:47:02;;;;;;;0.10;0.10;;;;;;;22.02;53.49;101730.03;5112875;28;20066;-38
2022/07/16 01:49:32;;;;;;;0.10;0.10;;;;;;;22.02;53.35;101730.88;5130218;28;20136;-38
2022/07/16 01:52:03;;;;;;;0.10;0.10;;;;;;;22.02;53.32;101736.44;5113792;28;20482;-38
2022/07/16 01:54:29;;;;;;;0.10;0.10;;;;;;;22.00;53.45;101737.81;5114014;28;20105;-38
2022/07/16 01:56:54;;;;;;;0.10;0.10;;;;;;;22.01;53.27;101731.16;5131269;28;20462;-38
2022/07/16 01:59:20;;;;;;;0.10;0.10;;;;;;;22.01;53.30;101742.25;5130387;28;20043;-37
2022/07/16 02:01:46;;;;;;;0.10;0.10;;;;;;;22.02;53.37;101738.34;5130687;28;20047;-38
2022/07/16 02:04:11;;;;;;;0.20;0.20;;;;;;;22.01;53.25;101736.69;5131739;28;20042;-39
2022/07/16 02:06:37;;;;;;;0.20;0.20;;;;;;;22.02;53.24;101741.13;5131616;28;20120;-38
2022/07/16 02:09:03;;;;;;;0.10;0.10;;;;;;;22.01;53.25;101745.00;5131692;28;20436;-39
2022/07/16 02:11:28;;;;;;;0.10;0.10;;;;;;;22.02;53.25;101735.56;5130662;28;20046;-38
2022/07/16 02:13:54;;;;;;;0.20;0.20;;;;;;;22.01;53.28;101737.53;5112778;28;20148;-38
2022/07/16 02:16:20;;;;;;;0.10;0.10;;;;;;;22.02;53.25;101736.44;5129797;28;20434;-37
2022/07/16 02:18:46;;;;;;;0.10;0.10;;;;;;;22.00;53.39;101733.09;5131809;28;20381;-40
2022/07/16 02:21:12;;;;;;;0.10;0.10;;;;;;;22.03;53.23;101731.72;5127101;28;20049;-36
2022/07/16 02:23:38;;;;;;;0.10;0.10;;;;;;;22.02;53.20;101732.78;5131558;28;20044;-38
2022/07/16 02:26:03;;;;;;;0.10;0.10;;;;;;;22.01;53.29;101729.19;5130932;28;20123;-38
2022/07/16 02:28:29;;;;;;;0.10;0.10;;;;;;;22.01;53.35;101728.38;5112582;28;20043;-37
2022/07/16 02:30:55;;;;;;;0.10;0.10;;;;;;;22.00;53.30;101732.25;5132082;27;20043;-38
2022/07/16 02:33:21;;;;;;;0.10;0.10;;;;;;;22.02;53.33;101735.56;5112385;28;20362;-38
2022/07/16 02:35:46;;;;;;;0.10;0.10;;;;;;;22.01;53.36;101725.59;5130231;28;20048;-37
2022/07/16 02:38:13;;;;;;;0.10;0.10;;;;;;;22.01;53.35;101734.75;5131381;28;20055;-37
2022/07/16 02:40:40;;;;;;;0.10;0.10;;;;;;;22.02;53.43;101735.56;5099018;28;20104;-37
2022/07/16 02:43:06;;;;;;;0.10;0.10;;;;;;;22.01;53.33;101731.97;5113408;28;20488;-38
2022/07/16 02:45:34;;;;;;;0.10;0.10;;;;;;;22.02;53.29;101725.34;5129403;28;20043;-38
2022/07/16 02:47:59;;;;;;;0.10;0.10;;;;;;;22.02;53.30;101730.88;5127270;27;20084;-38
2022/07/16 02:50:26;;;;;;;0.10;0.10;;;;;;;22.01;53.21;101729.19;5131872;28;20099;-39
2022/07/16 02:52:51;;;;;;;0.10;0.10;;;;;;;22.01;53.30;101723.66;5129525;28;20055;-39
2022/07/16 02:55:17;;;;;;;0.10;0.10;;;;;;;22.02;53.28;101722.56;5132323;28;20477;-38
2022/07/16 02:57:43;;;;;;;0.10;0.10;;;;;;;22.02;53.07;101718.94;5132165;28;20075;-38
2022/07/16 03:00:11;;;;;;;0.10;0.10;;;;;;;22.02;53.37;101727.25;5110671;28;20104;-38
2022/07/16 03:02:37;;;;;;;0.10;0.10;;;;;;;22.01;53.35;101720.88;5130742;28;20114;-38
2022/07/16 03:05:04;;;;;;;0.10;0.10;;;;;;;22.01;53.37;101734.75;5130089;28;20050;-38
2022/07/16 03:07:29;;;;;;;0.10;0.10;;;;;;;22.02;53.30;101730.88;5112433;28;20565;-39
2022/07/16 03:09:55;;;;;;;0.10;0.10;;;;;;;22.02;53.24;101739.19;5130057;28;20043;-38
2022/07/16 03:12:21;;;;;;;0.10;0.10;;;;;;;22.01;53.32;101734.75;5129826;28;20401;-37
2022/07/16 03:14:46;;;;;;;0.10;0.10;;;;;;;22.02;53.36;101736.44;5129839;28;20070;-38
2022/07/16 03:17:12;;;;;;;0.10;0.10;;;;;;;22.01;53.36;101736.69;5129359;28;20043;-39
2022/07/16 03:19:39;;;;;;;0.10;0.10;;;;;;;22.02;53.28;101735.56;5130366;28;20485;-38
2022/07/16 03:22:04;;;;;;;0.10;0.10;;;;;;;22.02;53.35;101741.97;5129089;28;20092;-38
2022/07/16 03:24:30;;;;;;;0.10;0.10;;;;;;;22.00;53.36;101727.53;5130725;28;20627;-37
2022/07/16 03:26:56;;;;;;;0.10;0.10;;;;;;;22.02;53.14;101732.78;5131579;28;20046;-37
2022/07/16 03:29:27;;;;;;;0.10;0.10;;;;;;;22.01;53.34;101731.97;5129423;27;20039;-39
2022/07/16 03:31:53;;;;;;;0.10;0.10;;;;;;;22.02;53.27;101735.56;5131569;28;20104;-37
2022/07/16 03:34:19;;;;;;;0.10;0.10;;;;;;;22.02;53.17;101732.78;5129434;28;20153;-39
2022/07/16 03:36:44;;;;;;;0.10;0.10;;;;;;;22.02;53.26;101736.44;5130697;28;20039;-38
2022/07/16 03:39:10;;;;;;;0.10;0.10;;;;;;;22.01;53.30;101737.53;5129045;28;20047;-39
2022/07/16 03:41:38;;;;;;;0.10;0.10;;;;;;;22.02;53.35;101741.13;5111214;28;20481;-37
2022/07/16 03:44:05;;;;;;;0.10;0.10;;;;;;;22.01;53.29;101736.69;5112284;28;20453;-37
2022/07/16 03:46:31;;;;;;;0.20;0.20;;;;;;;22.01;53.21;101731.97;5127367;28;20039;-37
2022/07/16 03:48:57;;;;;;;0.10;0.10;;;;;;;22.01;53.18;101737.53;5111585;28;20054;-36
2022/07/16 03:51:23;;;;;;;0.10;0.10;;;;;;;22.01;53.19;101733.91;5131117;28;20069;-38
2022/07/16 03:53:49;;;;;;;0.10;0.10;;;;;;;22.03;53.17;101743.63;5127917;28;20082;-38
2022/07/16 03:56:15;;;;;;;0.10;0.10;;;;;;;22.02;53.26;101746.66;5129799;28;20108;-37
2022/07/16 03:58:41;;;;;;;0.10;0.10;;;;;;;22.02;53.32;101743.88;5124915;27;20039;-38
2022/07/16 04:01:07;;;;;;;0.10;0.10;;;;;;;22.01;53.30;101743.06;5111053;28;20067;-37
2022/07/16 04:03:33;;;;;;;0.10;0.10;;;;;;;22.01;53.34;101745.84;5127769;28;20053;-39
2022/07/16 04:05:59;;;;;;;0.10;0.10;;;;;;;22.02;53.30;101753.06;5128593;28;20386;-39
2022/07/16 04:08:25;;;;;;;0.13;0.13;;;;;;;22.01;53.21;101751.38;5129382;28;20517;-39
2022/07/16 04:10:51;;;;;;;0.10;0.10;;;;;;;22.03;53.29;101759.44;5129293;28;20042;-37
2022/07/16 04:13:17;;;;;;;0.10;0.10;;;;;;;22.01;53.22;101759.72;5128491;28;20042;-38
2022/07/16 04:15:43;;;;;;;0.10;0.10;;;;;;;22.02;53.25;101761.41;5128098;28;20278;-39
2022/07/16 04:18:09;;;;;;;0.10;0.10;;;;;;;22.02;53.16;101755.00;5127108;28;20039;-38
2022/07/16 04:20:35;;;;;;;0.10;0.10;;;;;;;22.02;53.16;101758.63;5129026;28;20043;-38
2022/07/16 04:23:01;;;;;;;0.10;0.10;;;;;;;22.02;53.29;101755.00;5130447;28;20071;-39
2022/07/16 04:25:27;;;;;;;0.10;0.10;;;;;;;22.02;53.20;101750.28;5127259;27;20074;-39
2022/07/16 04:27:53;;;;;;;0.10;0.10;;;;;;;22.00;53.11;101746.97;5129129;28;20050;-38
2022/07/16 04:30:19;;;;;;;0.10;0.10;;;;;;;22.03;53.08;101753.91;5129314;28;20477;-39
2022/07/16 04:32:44;;;;;;;0.10;0.10;;;;;;;22.02;53.12;101749.44;5127613;28;20370;-38
2022/07/16 04:35:12;;;;;;;0.10;0.10;;;;;;;22.02;53.24;101752.22;5129672;28;20043;-38
2022/07/16 04:37:38;;;;;;;0.10;0.10;;;;;;;22.02;53.00;101763.31;5129382;28;20083;-38
2022/07/16 04:40:05;;;;;;;0.10;0.10;;;;;;;22.01;53.17;101758.88;5127496;28;20122;-38
2022/07/16 04:42:30;;;;;;;0.10;0.10;;;;;;;22.01;53.19;101756.94;5109317;28;20108;-38
2022/07/16 04:44:56;;;;;;;0.10;0.10;;;;;;;22.01;53.44;101761.66;5126565;28;20122;-38
2022/07/16 04:47:22;;;;;;;0.10;0.10;;;;;;;22.02;53.30;101766.09;5128244;28;20047;-38
2022/07/16 04:49:48;;;;;;;0.10;0.10;;;;;;;22.03;53.25;101759.44;5129185;28;20047;-38
2022/07/16 04:52:13;;;;;;;0.20;0.20;;;;;;;22.01;53.29;101762.47;5130779;28;20483;-39
2022/07/16 04:54:39;;;;;;;0.10;0.10;;;;;;;22.01;53.27;101759.72;5125863;28;20047;-39
2022/07/16 04:57:05;;;;;;;0.10;0.10;;;;;;;22.00;53.18;101769.16;5129461;28;20039;-38
2022/07/16 04:59:30;;;;;;;0.10;0.10;;;;;;;22.01;53.03;101772.75;5128417;28;20092;-38
2022/07/16 05:02:56;;;;;;;0.10;0.10;;;;;;;22.00;53.22;101771.09;5129775;28;20358;-39
2022/07/16 05:04:41;;;;;;;0.10;0.10;;;;;;;22.01;53.30;101756.09;5113986;28;20794;-39
2022/07/16 05:07:07;;;;;;;0.10;0.10;;;;;;;22.01;53.37;101764.44;5129357;28;20741;-38
2022/07/16 05:09:33;;;;;;;0.10;0.10;;;;;;;22.01;53.26;101767.19;5129219;27;20415;-38
2022/07/16 05:11:59;;;;;;;0.10;0.10;;;;;;;22.00;53.28;101765.53;5131938;28;20047;-39
2022/07/16 05:14:24;;;;;;;0.10;0.10;;;;;;;22.01;53.25;101767.19;5132574;28;20049;-39
2022/07/16 05:16:50;;;;;;;0.10;0.10;;;;;;;22.00;53.39;101758.06;5126507;28;20044;-38
2022/07/16 05:19:16;;;;;;;0.10;0.10;;;;;;;22.01;53.27;101753.34;5133311;28;20487;-38
2022/07/16 05:21:41;;;;;;;0.10;0.10;;;;;;;22.01;53.10;101767.19;5134409;28;20396;-38
2022/07/16 05:24:07;;;;;;;0.17;0.17;;;;;;;22.00;53.30;101771.09;5132819;28;20039;-38
2022/07/16 05:26:32;;;;;;;0.10;0.10;;;;;;;22.00;53.26;101774.69;5131760;27;20051;-38
2022/07/16 05:28:58;;;;;;;0.17;0.17;;;;;;;22.01;53.21;101767.19;5132719;28;20092;-38
2022/07/16 05:31:24;;;;;;;0.10;0.10;;;;;;;22.01;53.13;101762.47;5132796;28;20058;-38
2022/07/16 05:33:49;;;;;;;0.10;0.10;;;;;;;22.00;53.20;101765.53;5130730;28;20130;-38
2022/07/16 05:36:18;;;;;;;0.10;0.10;;;;;;;22.01;53.26;101767.19;5129430;28;20049;-39
2022/07/16 05:38:44;;;;;;;0.10;0.10;;;;;;;22.01;53.24;101778.28;5131170;28;20078;-38
2022/07/16 05:41:09;;;;;;;0.10;0.10;;;;;;;22.01;53.20;101775.53;5114390;28;20496;-40
2022/07/16 05:43:35;;;;;;;0.10;0.10;;;;;;;22.02;53.11;101783.59;5129862;27;20043;-38
2022/07/16 05:46:01;;;;;;;0.10;0.10;;;;;;;22.01;53.20;101783.84;5131380;28;20047;-37
2022/07/16 05:48:28;;;;;;;0.10;0.10;;;;;;;22.00;53.27;101791.34;5111882;28;20043;-37
2022/07/16 05:50:54;;;;;;;0.10;0.10;;;;;;;22.01;53.21;101793.00;5132832;28;20103;-38
2022/07/16 05:53:20;;;;;;;0.10;0.10;;;;;;;22.01;53.19;101800.47;5130233;28;20039;-36
2022/07/16 05:55:45;;;;;;;0.13;0.13;;;;;;;22.01;53.34;101792.16;5133565;28;20041;-38
2022/07/16 05:58:11;;;;;;;0.10;0.10;;;;;;;22.02;53.10;101793.81;5130998;28;20496;-38
2022/07/16 06:00:37;;;;;;;0.10;0.10;;;;;;;22.01;53.27;101792.16;5132220;28;20426;-39
2022/07/16 06:03:03;;;;;;;0.10;0.10;;;;;;;22.01;53.16;101795.75;5113507;28;20082;-38
2022/07/16 06:05:28;;;;;;;0.10;0.10;;;;;;;22.01;53.21;101803.25;5112833;28;20043;-39
2022/07/16 06:07:54;;;;;;;0.10;0.10;;;;;;;22.01;53.18;101809.63;5131873;28;20529;-36
2022/07/16 06:10:20;;;;;;;0.10;0.10;;;;;;;22.02;53.25;101810.47;5131314;28;20039;-37
2022/07/16 06:12:45;;;;;;;0.10;0.10;;;;;;;22.01;53.22;101812.41;5131224;28;20117;-37
2022/07/16 06:15:12;;;;;;;0.10;0.10;;;;;;;22.02;53.28;101810.47;5130512;28;20047;-39
2022/07/16 06:17:38;;;;;;;0.10;0.10;;;;;;;22.01;53.14;101814.34;5132404;27;20112;-37
2022/07/16 06:20:05;;;;;;;0.10;0.10;;;;;;;22.01;53.24;101814.34;5129882;28;20071;-37
2022/07/16 06:22:32;;;;;;;0.10;0.10;;;;;;;22.01;53.12;101809.63;5132424;27;20067;-37
2022/07/16 06:24:57;;;;;;;0.10;0.10;;;;;;;22.01;53.13;101817.94;5131484;28;20123;-37
2022/07/16 06:27:23;;;;;;;0.10;0.10;;;;;;;22.00;53.17;101816.28;5129308;28;20051;-37
2022/07/16 06:29:49;;;;;;;0.10;0.10;;;;;;;22.00;53.26;101823.78;5129438;28;20420;-37
2022/07/16 06:32:14;;;;;;;0.10;0.10;;;;;;;22.02;53.43;101824.31;5132794;28;20100;-39
2022/07/16 06:34:40;;;;;;;0.10;0.10;;;;;;;22.00;53.30;101826.56;5131414;28;20047;-37
2022/07/16 06:37:06;;;;;;;0.10;0.10;;;;;;;22.00;53.31;101824.63;5131207;28;20039;-37
2022/07/16 06:39:31;;;;;;;0.10;0.10;;;;;;;22.01;53.25;101837.38;5131358;28;20461;-37
2022/07/16 06:41:58;;;;;;;0.10;0.10;;;;;;;22.00;53.14;101824.63;5130762;28;20517;-38
2022/07/16 06:44:24;;;;;;;0.10;0.10;;;;;;;22.01;53.20;101837.38;5131311;28;20070;-36
2022/07/16 06:46:49;;;;;;;0.10;0.10;;;;;;;22.01;53.25;101836.53;5128944;28;20039;-37
2022/07/16 06:49:15;;;;;;;0.10;0.10;;;;;;;22.01;53.46;101831.00;5128990;28;20073;-37
2022/07/16 06:51:41;;;;;;;0.10;0.10;;;;;;;22.00;53.23;101835.72;5131135;28;20039;-39
2022/07/16 06:54:06;;;;;;;0.10;0.10;;;;;;;22.01;53.14;101839.31;5112809;28;20141;-39
2022/07/16 06:56:32;;;;;;;0.10;0.10;;;;;;;22.00;53.25;101841.25;5131860;28;20054;-37
2022/07/16 06:58:58;;;;;;;0.10;0.10;;;;;;;22.01;53.16;101847.63;5130481;28;20070;-37
2022/07/16 07:01:24;;;;;;;0.10;0.10;;;;;;;22.01;53.21;101845.69;5129521;28;20047;-39
2022/07/16 07:03:50;;;;;;;0.10;0.10;;;;;;;22.01;53.13;101853.19;5131964;28;20036;-39
2022/07/16 07:06:16;;;;;;;0.10;0.10;;;;;;;22.01;53.25;101855.97;5129534;28;20544;-39
2022/07/16 07:08:43;;;;;;;0.10;0.10;;;;;;;22.00;53.33;101846.81;5130381;28;21303;-36
2022/07/16 07:11:16;;;;;;;0.10;0.10;;;;;;;22.01;53.22;101853.19;5129746;28;20482;-38
2022/07/16 07:13:41;;;;;;;0.10;0.10;;;;;;;22.00;53.18;101857.91;5112382;28;20051;-38
2022/07/16 07:16:07;;;;;;;0.10;0.10;;;;;;;22.01;53.20;101861.50;5127927;27;20063;-39
2022/07/16 07:18:33;;;;;;;0.10;0.10;;;;;;;22.01;53.17;101855.97;5130150;28;20444;-38
2022/07/16 07:21:00;;;;;;;0.10;0.10;;;;;;;22.00;53.21;101857.91;5131305;28;20466;-37
2022/07/16 07:23:26;;;;;;;0.10;0.10;;;;;;;22.00;53.18;101859.84;5130485;28;20074;-38
2022/07/16 07:25:51;;;;;;;0.10;0.10;;;;;;;22.00;53.14;101863.44;5112327;28;20473;-39
2022/07/16 07:28:17;;;;;;;0.10;0.10;;;;;;;22.00;53.18;101865.41;5111650;28;20047;-37
2022/07/16 07:30:43;;;;;;;0.10;0.10;;;;;;;22.00;53.14;101860.69;5130154;28;20049;-38
2022/07/16 07:33:09;;;;;;;0.10;0.10;;;;;;;22.01;53.21;101865.09;5127905;27;20050;-37
2022/07/16 07:35:34;;;;;;;0.10;0.10;;;;;;;21.99;53.29;101858.19;5130380;28;20046;-37
2022/07/16 07:38:01;;;;;;;0.10;0.10;;;;;;;22.00;53.27;101863.44;5130115;28;20449;-37
2022/07/16 07:40:27;;;;;;;0.17;0.17;;;;;;;22.01;53.18;101870.66;5130215;28;20517;-39
2022/07/16 07:42:54;;;;;;;0.17;0.17;;;;;;;22.00;53.27;101869.00;5127786;27;20132;-39
2022/07/16 07:45:20;;;;;;;0.10;0.10;;;;;;;22.00;53.06;101870.94;5130358;28;20087;-37
2022/07/16 07:47:46;;;;;;;0.20;0.20;;;;;;;22.00;53.30;101874.53;5110313;28;20101;-39
2022/07/16 07:50:13;;;;;;;0.13;0.13;;;;;;;22.01;53.09;101878.16;5129568;28;20050;-37
2022/07/16 07:52:39;;;;;;;0.10;0.10;;;;;;;22.00;53.29;101882.03;5126292;28;20082;-38
2022/07/16 07:55:06;;;;;;;0.10;0.10;;;;;;;22.01;52.95;101889.25;5111786;28;20091;-37
2022/07/16 07:57:32;;;;;;;0.10;0.10;;;;;;;22.01;53.20;101880.91;5111410;28;20086;-37
2022/07/16 07:59:58;;;;;;;0.10;0.10;;;;;;;21.99;53.26;101886.75;5127880;28;20508;-37
2022/07/16 08:02:23;;;;;;;0.10;0.10;;;;;;;21.99;53.17;101886.75;5111488;28;20047;-37
2022/07/16 08:04:49;;;;;;;0.10;0.10;;;;;;;22.00;53.25;101885.63;5129814;28;20062;-38
2022/07/16 08:07:15;;;;;;;0.10;0.10;;;;;;;22.01;53.17;101889.25;5129062;28;20142;-37
2022/07/16 08:09:40;;;;;;;0.10;0.10;;;;;;;22.00;52.95;101882.03;5129716;28;20057;-37
2022/07/16 08:12:06;;;;;;;0.10;0.10;;;;;;;22.00;53.18;101888.41;5129605;28;20051;-38
2022/07/16 08:14:32;;;;;;;0.10;0.10;;;;;;;21.99;53.32;101883.97;5126257;28;20465;-38
2022/07/16 08:16:58;;;;;;;0.10;0.10;;;;;;;22.01;53.12;101886.47;5128354;27;20435;-38
2022/07/16 08:19:24;;;;;;;0.10;0.10;;;;;;;22.01;53.05;101892.00;5111672;28;20082;-38
2022/07/16 08:21:50;;;;;;;0.10;0.10;;;;;;;22.00;53.18;101891.19;5109917;28;20073;-36
2022/07/16 08:27:02;;;;;;;0.10;0.10;;;;;;;22.00;53.17;101895.91;5100506;28;20124;-37
2022/07/16 08:29:27;;;;;;;0.10;0.10;;;;;;;21.99;53.25;101895.06;5111795;28;20080;-39
2022/07/16 08:31:53;;;;;;;0.20;0.20;;;;;;;22.01;53.22;101897.56;5128978;28;20107;-37
2022/07/16 08:34:22;;;;;;;0.10;0.10;;;;;;;22.00;53.11;101893.13;5125272;28;20047;-39
2022/07/16 08:36:49;;;;;;;0.10;0.10;;;;;;;22.00;53.09;101896.72;5128726;28;20484;-39
2022/07/16 08:39:15;;;;;;;0.20;0.20;;;;;;;22.00;52.90;101901.44;5129663;28;20461;-38
2022/07/16 08:41:42;;;;;;;0.10;0.10;;;;;;;21.99;53.28;101908.94;5129652;28;20104;-37
2022/07/16 08:44:08;;;;;;;0.10;0.10;;;;;;;22.00;53.18;101910.59;5094449;27;20481;-38
2022/07/16 08:46:34;;;;;;;0.10;0.10;;;;;;;22.00;53.15;101909.78;5112152;28;20079;-37
2022/07/16 08:48:59;;;;;;;0.10;0.10;;;;;;;22.01;53.10;101909.47;5114744;28;20047;-39
2022/07/16 08:51:31;;;;;;;0.10;0.10;;;;;;;22.00;53.31;101918.91;5134055;28;20092;-39
2022/07/16 08:54:04;;;;;;;0.10;0.10;;;;;;;21.99;53.26;101917.25;5131643;28;20393;-39
2022/07/16 08:56:30;;;;;;;0.10;0.10;;;;;;;22.00;53.16;101924.47;5098048;28;20075;-38
2022/07/16 08:58:56;;;;;;;0.10;0.10;;;;;;;21.99;53.24;101924.75;5133324;28;20572;-39
2022/07/16 09:01:25;;;;;;;0.10;0.10;;;;;;;22.00;53.31;101929.19;5114932;28;20077;-38
2022/07/16 09:03:51;;;;;;;0.10;0.10;;;;;;;22.01;53.14;101933.63;5132011;28;20115;-39
2022/07/16 09:06:17;;;;;;;0.10;0.10;;;;;;;22.00;53.17;101938.34;5132353;28;20074;-37
2022/07/16 09:08:43;;;;;;;0.10;0.10;;;;;;;22.00;53.18;101929.19;5131828;28;20450;-37
2022/07/16 09:11:25;;;;;;;0.10;0.10;;;;;;;22.00;53.20;101943.88;5131869;28;20134;-38
2022/07/16 09:14:00;;;;;;;0.10;0.10;;;;;;;22.00;53.26;101948.59;5131611;28;20082;-39
2022/07/16 09:16:29;;;;;;;0.10;0.10;;;;;;;22.01;53.16;101948.31;5129893;27;20050;-38
2022/07/16 09:19:14;;;;;;;0.10;0.10;;;;;;;22.00;53.34;101941.13;5129626;28;20150;-37
2022/07/16 09:22:08;;;;;;;0.10;0.10;;;;;;;22.00;53.25;101943.88;5130202;28;20502;-37
2022/07/16 09:24:38;;;;;;;0.15;0.15;;;;;;;22.01;53.17;101964.13;5118365;28;20039;-38
2022/07/16 09:27:11;;;;;;;0.10;0.10;;;;;;;22.01;53.13;101958.59;5132063;28;20078;-39
2022/07/16 09:29:45;;;;;;;0.10;0.10;;;;;;;22.00;53.27;101962.47;5114438;28;20071;-38
2022/07/16 09:32:11;;;;;;;0.10;0.10;;;;;;;22.00;53.21;101968.03;5097322;28;20066;-38
2022/07/16 09:34:37;;;;;;;0.10;0.10;;;;;;;21.99;53.26;101969.97;5132192;28;20759;-36
2022/07/16 09:37:05;;;;;;;0.10;0.10;;;;;;;22.00;53.17;101968.84;5130054;28;20044;-39
2022/07/16 09:39:32;;;;;;;0.10;0.10;;;;;;;21.99;53.13;101966.38;5131752;28;20093;-39
2022/07/16 09:41:59;;;;;;;0.10;0.10;;;;;;;21.99;53.29;101960.81;5132065;28;20035;-39
2022/07/16 09:44:29;;;;;;;0.10;0.10;;;;;;;21.99;53.27;101964.41;5097430;28;20085;-38
2022/07/16 09:47:02;;;;;;;0.10;0.10;;;;;;;21.99;53.27;101966.38;5129479;28;20043;-39
2022/07/16 09:49:29;;;;;;;0.10;0.10;;;;;;;21.99;53.31;101969.97;5113568;28;20159;-39
2022/07/16 09:51:55;;;;;;;0.17;0.17;;;;;;;22.00;53.02;101962.47;5113326;28;20071;-38
2022/07/16 09:54:33;;;;;;;0.10;0.10;;;;;;;22.00;53.28;101959.69;5132098;28;20070;-38
2022/07/16 09:57:16;;;;;;;0.10;0.10;;;;;;;21.99;53.23;101966.38;5113653;28;20046;-38
2022/07/16 09:59:43;;;;;;;0.10;0.10;;;;;;;22.01;53.19;101972.44;5112855;28;20074;-38
2022/07/16 10:02:27;;;;;;;0.10;0.10;;;;;;;21.99;53.14;101972.75;5127012;28;20043;-39
2022/07/16 10:04:53;;;;;;;0.10;0.10;;;;;;;21.99;53.14;101969.97;5113648;28;20066;-39
2022/07/16 10:07:19;;;;;;;0.20;0.20;;;;;;;21.98;53.13;101962.75;5113628;28;20422;-39
2022/07/16 10:09:45;;;;;;;0.10;0.10;;;;;;;21.99;53.29;101967.19;5112385;28;20047;-39
2022/07/16 10:12:13;;;;;;;0.10;0.10;;;;;;;22.00;53.10;101973.56;5132294;28;20078;-38
2022/07/16 10:14:44;;;;;;;0.10;0.10;;;;;;;21.99;52.98;101969.13;5129426;28;20070;-38
2022/07/16 10:17:13;;;;;;;0.15;0.15;;;;;;;21.99;53.13;101975.50;5111826;28;20493;-38
2022/07/16 10:19:40;;;;;;;0.10;0.10;;;;;;;22.00;53.20;101976.34;5113495;28;20374;-38
2022/07/16 10:22:28;;;;;;;0.10;0.10;;;;;;;22.00;53.26;101979.94;5131994;28;20047;-39
2022/07/16 10:24:55;;;;;;;0.10;0.10;;;;;;;22.00;53.20;101976.34;5116189;28;20066;-39
2022/07/16 10:30:13;;;;;;;0.10;0.10;;;;;;;22.01;53.12;101987.16;5158147;27;20462;-38
2022/07/16 10:35:41;;;;;;;0.10;0.10;;;;;;;22.01;53.16;101986.31;5160760;27;20459;-38
2022/07/16 10:38:21;;;;;;;0.10;0.10;;;;;;;22.00;53.30;101977.19;5122896;27;20039;-39
2022/07/16 10:41:07;;;;;;;0.10;0.10;;;;;;;22.00;53.28;101979.94;5116992;27;20409;-39
2022/07/16 10:43:34;;;;;;;0.10;0.10;;;;;;;22.01;53.16;101978.00;5128380;27;20103;-39
2022/07/16 10:46:02;;;;;;;0.10;0.10;;;;;;;22.01;53.12;101987.16;5130408;27;20086;-38
2022/07/16 10:48:31;;;;;;;0.10;0.10;;;;;;;22.00;53.28;101990.22;5145756;27;20446;-38
2022/07/16 10:51:14;;;;;;;0.10;0.10;;;;;;;21.99;53.27;101986.59;5142297;27;20081;-38
2022/07/16 10:56:39;;;;;;;0.10;0.10;;;;;;;21.99;53.13;102000.47;5168845;27;20519;-38
2022/07/16 10:59:06;;;;;;;0.10;0.10;;;;;;;21.99;53.07;101999.66;5131762;27;20124;-38
2022/07/16 11:01:31;;;;;;;0.10;0.10;;;;;;;22.00;53.26;102006.84;5146856;27;20079;-38
2022/07/16 11:03:57;;;;;;;0.10;0.10;;;;;;;22.00;53.21;102002.13;5147699;27;20054;-37
2022/07/16 11:06:23;;;;;;;0.10;0.10;;;;;;;21.99;53.40;102002.41;5145975;27;20293;-38
2022/07/16 11:08:54;;;;;;;0.15;0.15;;;;;;;21.99;53.28;102006.03;5128943;27;20373;-37
2022/07/16 11:11:20;;;;;;;0.10;0.10;;;;;;;21.99;53.29;102003.25;5128192;27;20042;-39
2022/07/16 11:13:46;;;;;;;0.10;0.10;;;;;;;22.00;53.18;102012.41;5146898;27;20038;-36
2022/07/16 11:16:12;;;;;;;0.40;0.20;;;;;;;21.99;53.28;102011.56;5126896;27;20058;-37
2022/07/16 11:18:39;;;;;;;0.20;0.20;;;;;;;21.99;53.30;102014.34;5128609;27;20054;-39
2022/07/16 11:21:06;;;;;;;0.10;0.10;;;;;;;22.00;53.38;102017.94;5128647;27;20089;-37
2022/07/16 11:23:46;;;;;;;0.20;0.20;;;;;;;21.99;53.26;102008.78;5147962;27;20043;-38
2022/07/16 11:26:12;;;;;;;0.10;0.10;;;;;;;21.99;53.19;102019.06;5146019;27;20090;-38
2022/07/16 11:28:49;;;;;;;0.10;0.10;;;;;;;21.99;53.23;102011.56;5146311;27;20124;-38
2022/07/16 11:31:15;;;;;;;0.10;0.10;;;;;;;21.99;53.18;102010.75;5128811;27;20493;-38
2022/07/16 11:33:49;;;;;;;0.10;0.10;;;;;;;22.00;53.26;102015.19;5144534;27;20043;-39
2022/07/16 11:36:15;;;;;;;0.15;0.15;;;;;;;21.99;53.20;102008.78;5146248;27;20049;-38
2022/07/16 11:38:41;;;;;;;0.17;0.17;;;;;;;22.00;53.17;102017.94;5146376;27;20112;-38